sensor_id;sensor_type;location;lat;lon;timestamp;P1;durP1;ratioP1;P2;durP2;ratioP2
45326;SDS011;31062;49.678;24.560;2023-05-07T00:00:57;1.90;;;1.60;;
45326;SDS011;31062;49.678;24.560;2023-05-07T00:03:44;2.03;;;1.92;;
45326;SDS011;31062;49.678;24.560;2023-05-07T00:06:31;2.63;;;1.80;;
45326;SDS011;31062;49.678;24.560;2023-05-07T00:09:17;7.55;;;2.20;;
45326;SDS011;31062;49.678;24.560;2023-05-07T00:12:02;2.00;;;1.80;;
45326;SDS011;31062;49.678;24.560;2023-05-07T00:14:48;2.20;;;1.92;;
45326;SDS011;31062;49.678;24.560;2023-05-07T00:17:34;3.92;;;2.25;;
45326;SDS011;31062;49.678;24.560;2023-05-07T00:20:19;7.55;;;1.90;;
45326;SDS011;31062;49.678;24.560;2023-05-07T00:23:04;6.03;;;2.30;;
45326;SDS011;31062;49.678;24.560;2023-05-07T00:25:50;2.75;;;2.45;;
45326;SDS011;31062;49.678;24.560;2023-05-07T00:28:35;6.50;;;2.40;;
45326;SDS011;31062;49.678;24.560;2023-05-07T00:31:21;6.85;;;2.65;;
45326;SDS011;31062;49.678;24.560;2023-05-07T00:34:06;4.95;;;2.22;;
45326;SDS011;31062;49.678;24.560;2023-05-07T00:36:52;3.63;;;1.77;;
45326;SDS011;31062;49.678;24.560;2023-05-07T00:39:37;4.35;;;1.77;;
45326;SDS011;31062;49.678;24.560;2023-05-07T00:42:22;2.83;;;1.92;;
45326;SDS011;31062;49.678;24.560;2023-05-07T00:45:09;1.85;;;1.63;;
45326;SDS011;31062;49.678;24.560;2023-05-07T00:47:56;5.97;;;1.77;;
45326;SDS011;31062;49.678;24.560;2023-05-07T00:50:44;3.58;;;1.75;;
45326;SDS011;31062;49.678;24.560;2023-05-07T00:53:31;2.00;;;1.88;;
45326;SDS011;31062;49.678;24.560;2023-05-07T00:56:16;2.50;;;1.70;;
45326;SDS011;31062;49.678;24.560;2023-05-07T00:59:02;3.20;;;1.90;;
45326;SDS011;31062;49.678;24.560;2023-05-07T01:01:48;3.20;;;2.03;;
45326;SDS011;31062;49.678;24.560;2023-05-07T01:04:34;6.35;;;1.85;;
45326;SDS011;31062;49.678;24.560;2023-05-07T01:07:20;4.15;;;1.73;;
45326;SDS011;31062;49.678;24.560;2023-05-07T01:10:07;3.25;;;1.67;;
45326;SDS011;31062;49.678;24.560;2023-05-07T01:12:54;4.20;;;1.77;;
45326;SDS011;31062;49.678;24.560;2023-05-07T01:15:40;3.50;;;1.70;;
45326;SDS011;31062;49.678;24.560;2023-05-07T01:18:26;1.90;;;1.48;;
45326;SDS011;31062;49.678;24.560;2023-05-07T01:21:12;3.13;;;1.88;;
45326;SDS011;31062;49.678;24.560;2023-05-07T01:24:02;5.47;;;1.83;;
45326;SDS011;31062;49.678;24.560;2023-05-07T01:26:49;8.85;;;2.03;;
45326;SDS011;31062;49.678;24.560;2023-05-07T01:29:35;4.53;;;1.50;;
45326;SDS011;31062;49.678;24.560;2023-05-07T01:32:22;3.72;;;1.55;;
45326;SDS011;31062;49.678;24.560;2023-05-07T01:35:21;1.92;;;1.75;;
45326;SDS011;31062;49.678;24.560;2023-05-07T01:38:11;2.75;;;1.73;;
45326;SDS011;31062;49.678;24.560;2023-05-07T01:40:57;8.65;;;1.90;;
45326;SDS011;31062;49.678;24.560;2023-05-07T01:43:43;6.45;;;1.85;;
45326;SDS011;31062;49.678;24.560;2023-05-07T01:46:30;2.85;;;1.80;;
45326;SDS011;31062;49.678;24.560;2023-05-07T01:49:17;7.60;;;1.92;;
45326;SDS011;31062;49.678;24.560;2023-05-07T01:52:03;2.63;;;1.65;;
45326;SDS011;31062;49.678;24.560;2023-05-07T01:54:48;2.10;;;1.90;;
45326;SDS011;31062;49.678;24.560;2023-05-07T01:57:34;3.80;;;1.77;;
45326;SDS011;31062;49.678;24.560;2023-05-07T02:00:20;3.58;;;1.73;;
45326;SDS011;31062;49.678;24.560;2023-05-07T02:03:06;2.17;;;1.48;;
45326;SDS011;31062;49.678;24.560;2023-05-07T02:05:59;6.40;;;1.67;;
45326;SDS011;31062;49.678;24.560;2023-05-07T02:08:51;1.73;;;1.50;;
45326;SDS011;31062;49.678;24.560;2023-05-07T02:11:37;2.83;;;1.73;;
45326;SDS011;31062;49.678;24.560;2023-05-07T02:14:23;6.68;;;1.70;;
45326;SDS011;31062;49.678;24.560;2023-05-07T02:17:08;7.28;;;3.25;;
45326;SDS011;31062;49.678;24.560;2023-05-07T02:19:53;5.18;;;1.67;;
45326;SDS011;31062;49.678;24.560;2023-05-07T02:22:39;1.75;;;1.50;;
45326;SDS011;31062;49.678;24.560;2023-05-07T02:25:24;6.15;;;1.88;;
45326;SDS011;31062;49.678;24.560;2023-05-07T02:28:09;4.68;;;1.58;;
45326;SDS011;31062;49.678;24.560;2023-05-07T02:31:05;5.18;;;1.58;;
45326;SDS011;31062;49.678;24.560;2023-05-07T02:33:51;1.60;;;1.45;;
45326;SDS011;31062;49.678;24.560;2023-05-07T02:36:37;3.92;;;1.45;;
45326;SDS011;31062;49.678;24.560;2023-05-07T02:39:28;4.80;;;1.42;;
45326;SDS011;31062;49.678;24.560;2023-05-07T02:42:13;6.90;;;1.73;;
45326;SDS011;31062;49.678;24.560;2023-05-07T02:44:59;4.30;;;1.77;;
45326;SDS011;31062;49.678;24.560;2023-05-07T02:47:46;3.17;;;1.60;;
45326;SDS011;31062;49.678;24.560;2023-05-07T02:50:32;2.38;;;1.50;;
45326;SDS011;31062;49.678;24.560;2023-05-07T02:53:18;4.60;;;1.50;;
45326;SDS011;31062;49.678;24.560;2023-05-07T02:56:03;6.15;;;1.60;;
45326;SDS011;31062;49.678;24.560;2023-05-07T02:58:51;3.80;;;1.75;;
45326;SDS011;31062;49.678;24.560;2023-05-07T03:01:39;3.53;;;1.50;;
45326;SDS011;31062;49.678;24.560;2023-05-07T03:04:26;2.95;;;1.25;;
45326;SDS011;31062;49.678;24.560;2023-05-07T03:07:12;1.50;;;1.40;;
45326;SDS011;31062;49.678;24.560;2023-05-07T03:09:57;3.45;;;1.58;;
45326;SDS011;31062;49.678;24.560;2023-05-07T03:12:43;1.92;;;1.80;;
45326;SDS011;31062;49.678;24.560;2023-05-07T03:15:33;6.05;;;1.45;;
45326;SDS011;31062;49.678;24.560;2023-05-07T03:18:18;4.88;;;1.33;;
45326;SDS011;31062;49.678;24.560;2023-05-07T03:21:04;1.42;;;1.23;;
45326;SDS011;31062;49.678;24.560;2023-05-07T03:23:50;1.65;;;1.52;;
45326;SDS011;31062;49.678;24.560;2023-05-07T03:26:36;4.00;;;1.42;;
45326;SDS011;31062;49.678;24.560;2023-05-07T03:29:21;2.53;;;1.77;;
45326;SDS011;31062;49.678;24.560;2023-05-07T03:32:07;6.47;;;1.38;;
45326;SDS011;31062;49.678;24.560;2023-05-07T03:34:52;5.85;;;1.52;;
45326;SDS011;31062;49.678;24.560;2023-05-07T03:37:39;3.63;;;1.30;;
45326;SDS011;31062;49.678;24.560;2023-05-07T03:40:26;2.35;;;1.10;;
45326;SDS011;31062;49.678;24.560;2023-05-07T03:43:13;3.17;;;1.10;;
45326;SDS011;31062;49.678;24.560;2023-05-07T03:46:03;5.72;;;1.40;;
45326;SDS011;31062;49.678;24.560;2023-05-07T03:48:49;3.65;;;1.20;;
45326;SDS011;31062;49.678;24.560;2023-05-07T03:51:37;3.50;;;1.10;;
45326;SDS011;31062;49.678;24.560;2023-05-07T03:54:24;2.40;;;1.90;;
45326;SDS011;31062;49.678;24.560;2023-05-07T03:57:10;2.15;;;1.95;;
45326;SDS011;31062;49.678;24.560;2023-05-07T03:59:55;3.30;;;1.20;;
45326;SDS011;31062;49.678;24.560;2023-05-07T04:02:41;3.65;;;1.50;;
45326;SDS011;31062;49.678;24.560;2023-05-07T04:05:27;4.65;;;1.42;;
45326;SDS011;31062;49.678;24.560;2023-05-07T04:08:17;2.20;;;1.25;;
45326;SDS011;31062;49.678;24.560;2023-05-07T04:11:06;2.05;;;1.60;;
45326;SDS011;31062;49.678;24.560;2023-05-07T04:13:54;7.25;;;2.22;;
45326;SDS011;31062;49.678;24.560;2023-05-07T04:16:41;5.25;;;1.77;;
45326;SDS011;31062;49.678;24.560;2023-05-07T04:19:27;3.08;;;1.63;;
45326;SDS011;31062;49.678;24.560;2023-05-07T04:22:13;1.00;;;1.00;;
45326;SDS011;31062;49.678;24.560;2023-05-07T04:24:58;6.93;;;2.50;;
45326;SDS011;31062;49.678;24.560;2023-05-07T04:27:45;5.90;;;1.38;;
45326;SDS011;31062;49.678;24.560;2023-05-07T04:30:31;1.75;;;1.45;;
45326;SDS011;31062;49.678;24.560;2023-05-07T04:33:17;3.50;;;1.73;;
45326;SDS011;31062;49.678;24.560;2023-05-07T04:36:04;2.88;;;1.60;;
45326;SDS011;31062;49.678;24.560;2023-05-07T04:38:54;3.47;;;1.50;;
45326;SDS011;31062;49.678;24.560;2023-05-07T04:41:39;2.85;;;1.17;;
45326;SDS011;31062;49.678;24.560;2023-05-07T04:44:26;1.45;;;1.30;;
45326;SDS011;31062;49.678;24.560;2023-05-07T04:47:12;4.47;;;1.30;;
45326;SDS011;31062;49.678;24.560;2023-05-07T04:49:58;1.23;;;1.10;;
45326;SDS011;31062;49.678;24.560;2023-05-07T04:52:44;2.22;;;1.45;;
45326;SDS011;31062;49.678;24.560;2023-05-07T04:55:30;4.07;;;1.50;;
45326;SDS011;31062;49.678;24.560;2023-05-07T04:58:16;2.15;;;1.33;;
45326;SDS011;31062;49.678;24.560;2023-05-07T05:01:04;1.50;;;1.40;;
45326;SDS011;31062;49.678;24.560;2023-05-07T05:03:50;5.18;;;1.30;;
45326;SDS011;31062;49.678;24.560;2023-05-07T05:06:38;5.55;;;1.15;;
45326;SDS011;31062;49.678;24.560;2023-05-07T05:09:24;2.40;;;1.27;;
45326;SDS011;31062;49.678;24.560;2023-05-07T05:12:10;2.55;;;1.25;;
45326;SDS011;31062;49.678;24.560;2023-05-07T05:14:56;2.35;;;1.33;;
45326;SDS011;31062;49.678;24.560;2023-05-07T05:17:41;1.50;;;1.30;;
45326;SDS011;31062;49.678;24.560;2023-05-07T05:20:28;3.90;;;1.40;;
45326;SDS011;31062;49.678;24.560;2023-05-07T05:23:13;2.85;;;1.40;;
45326;SDS011;31062;49.678;24.560;2023-05-07T05:25:59;3.20;;;1.40;;
45326;SDS011;31062;49.678;24.560;2023-05-07T05:28:48;4.78;;;1.35;;
45326;SDS011;31062;49.678;24.560;2023-05-07T05:31:37;2.50;;;1.45;;
45326;SDS011;31062;49.678;24.560;2023-05-07T05:34:23;2.00;;;1.38;;
45326;SDS011;31062;49.678;24.560;2023-05-07T05:37:08;2.30;;;1.75;;
45326;SDS011;31062;49.678;24.560;2023-05-07T05:39:54;1.77;;;1.27;;
45326;SDS011;31062;49.678;24.560;2023-05-07T05:42:41;2.70;;;1.35;;
45326;SDS011;31062;49.678;24.560;2023-05-07T05:45:28;3.10;;;1.60;;
45326;SDS011;31062;49.678;24.560;2023-05-07T05:48:14;1.95;;;1.17;;
45326;SDS011;31062;49.678;24.560;2023-05-07T05:50:59;3.83;;;1.60;;
45326;SDS011;31062;49.678;24.560;2023-05-07T05:53:45;4.72;;;1.48;;
45326;SDS011;31062;49.678;24.560;2023-05-07T05:56:31;3.50;;;1.63;;
45326;SDS011;31062;49.678;24.560;2023-05-07T05:59:17;3.28;;;1.75;;
45326;SDS011;31062;49.678;24.560;2023-05-07T06:02:03;3.45;;;1.55;;
45326;SDS011;31062;49.678;24.560;2023-05-07T06:04:49;3.33;;;1.55;;
45326;SDS011;31062;49.678;24.560;2023-05-07T06:07:37;5.43;;;1.33;;
45326;SDS011;31062;49.678;24.560;2023-05-07T06:10:23;5.60;;;1.30;;
45326;SDS011;31062;49.678;24.560;2023-05-07T06:13:09;4.38;;;1.50;;
45326;SDS011;31062;49.678;24.560;2023-05-07T06:15:56;2.25;;;1.45;;
45326;SDS011;31062;49.678;24.560;2023-05-07T06:18:41;1.83;;;1.35;;
45326;SDS011;31062;49.678;24.560;2023-05-07T06:21:27;1.67;;;1.33;;
45326;SDS011;31062;49.678;24.560;2023-05-07T06:24:12;2.95;;;1.80;;
45326;SDS011;31062;49.678;24.560;2023-05-07T06:26:58;3.60;;;2.03;;
45326;SDS011;31062;49.678;24.560;2023-05-07T06:29:47;1.95;;;1.60;;
45326;SDS011;31062;49.678;24.560;2023-05-07T06:32:35;3.20;;;1.30;;
45326;SDS011;31062;49.678;24.560;2023-05-07T06:35:23;4.03;;;1.20;;
45326;SDS011;31062;49.678;24.560;2023-05-07T06:38:09;1.25;;;1.20;;
45326;SDS011;31062;49.678;24.560;2023-05-07T06:40:55;4.82;;;1.75;;
45326;SDS011;31062;49.678;24.560;2023-05-07T06:43:42;6.88;;;2.00;;
45326;SDS011;31062;49.678;24.560;2023-05-07T06:46:48;1.65;;;1.55;;
45326;SDS011;31062;49.678;24.560;2023-05-07T06:49:34;1.85;;;1.60;;
45326;SDS011;31062;49.678;24.560;2023-05-07T06:52:20;5.80;;;2.30;;
45326;SDS011;31062;49.678;24.560;2023-05-07T06:55:08;3.83;;;1.65;;
45326;SDS011;31062;49.678;24.560;2023-05-07T06:57:54;4.03;;;1.52;;
45326;SDS011;31062;49.678;24.560;2023-05-07T07:00:41;1.98;;;1.42;;
45326;SDS011;31062;49.678;24.560;2023-05-07T07:03:26;3.22;;;1.40;;
45326;SDS011;31062;49.678;24.560;2023-05-07T07:06:13;3.80;;;1.50;;
45326;SDS011;31062;49.678;24.560;2023-05-07T07:09:00;2.63;;;1.77;;
45326;SDS011;31062;49.678;24.560;2023-05-07T07:11:47;4.68;;;1.75;;
45326;SDS011;31062;49.678;24.560;2023-05-07T07:14:32;3.25;;;1.55;;
45326;SDS011;31062;49.678;24.560;2023-05-07T07:17:18;4.00;;;1.77;;
45326;SDS011;31062;49.678;24.560;2023-05-07T07:20:03;2.03;;;1.42;;
45326;SDS011;31062;49.678;24.560;2023-05-07T07:22:49;2.95;;;1.90;;
45326;SDS011;31062;49.678;24.560;2023-05-07T07:25:35;6.50;;;2.00;;
45326;SDS011;31062;49.678;24.560;2023-05-07T07:28:21;2.30;;;1.63;;
45326;SDS011;31062;49.678;24.560;2023-05-07T07:31:07;2.65;;;1.63;;
45326;SDS011;31062;49.678;24.560;2023-05-07T07:33:53;2.85;;;1.45;;
45326;SDS011;31062;49.678;24.560;2023-05-07T07:36:38;4.45;;;1.77;;
45326;SDS011;31062;49.678;24.560;2023-05-07T07:39:35;2.70;;;1.90;;
45326;SDS011;31062;49.678;24.560;2023-05-07T07:42:29;5.00;;;2.20;;
45326;SDS011;31062;49.678;24.560;2023-05-07T07:45:16;1.70;;;1.50;;
45326;SDS011;31062;49.678;24.560;2023-05-07T07:48:05;2.83;;;1.63;;
45326;SDS011;31062;49.678;24.560;2023-05-07T07:50:53;2.42;;;1.50;;
45326;SDS011;31062;49.678;24.560;2023-05-07T07:53:40;3.50;;;2.03;;
45326;SDS011;31062;49.678;24.560;2023-05-07T07:56:26;4.20;;;2.05;;
45326;SDS011;31062;49.678;24.560;2023-05-07T07:59:12;1.98;;;1.77;;
45326;SDS011;31062;49.678;24.560;2023-05-07T08:02:00;2.90;;;2.00;;
45326;SDS011;31062;49.678;24.560;2023-05-07T08:04:50;5.28;;;1.88;;
45326;SDS011;31062;49.678;24.560;2023-05-07T08:07:37;4.03;;;1.65;;
45326;SDS011;31062;49.678;24.560;2023-05-07T08:10:22;4.95;;;2.00;;
45326;SDS011;31062;49.678;24.560;2023-05-07T08:13:14;2.77;;;2.00;;
45326;SDS011;31062;49.678;24.560;2023-05-07T08:16:00;4.05;;;2.42;;
45326;SDS011;31062;49.678;24.560;2023-05-07T08:18:47;5.25;;;2.40;;
45326;SDS011;31062;49.678;24.560;2023-05-07T08:21:34;3.75;;;2.28;;
45326;SDS011;31062;49.678;24.560;2023-05-07T08:24:20;3.60;;;2.17;;
45326;SDS011;31062;49.678;24.560;2023-05-07T08:27:06;3.72;;;2.30;;
45326;SDS011;31062;49.678;24.560;2023-05-07T08:29:52;4.00;;;2.28;;
45326;SDS011;31062;49.678;24.560;2023-05-07T08:32:40;6.32;;;2.25;;
45326;SDS011;31062;49.678;24.560;2023-05-07T08:35:26;4.10;;;2.10;;
45326;SDS011;31062;49.678;24.560;2023-05-07T08:38:12;6.75;;;2.60;;
45326;SDS011;31062;49.678;24.560;2023-05-07T08:40:58;2.78;;;2.22;;
45326;SDS011;31062;49.678;24.560;2023-05-07T08:43:47;6.22;;;2.28;;
45326;SDS011;31062;49.678;24.560;2023-05-07T08:46:37;3.47;;;2.77;;
45326;SDS011;31062;49.678;24.560;2023-05-07T08:49:25;9.32;;;3.25;;
45326;SDS011;31062;49.678;24.560;2023-05-07T08:52:11;9.35;;;5.35;;
45326;SDS011;31062;49.678;24.560;2023-05-07T08:54:57;23.95;;;10.73;;
45326;SDS011;31062;49.678;24.560;2023-05-07T08:57:44;13.80;;;7.95;;
45326;SDS011;31062;49.678;24.560;2023-05-07T09:00:30;8.50;;;5.05;;
45326;SDS011;31062;49.678;24.560;2023-05-07T09:03:18;6.00;;;3.78;;
45326;SDS011;31062;49.678;24.560;2023-05-07T09:06:07;4.18;;;2.92;;
45326;SDS011;31062;49.678;24.560;2023-05-07T09:08:54;7.70;;;3.90;;
45326;SDS011;31062;49.678;24.560;2023-05-07T09:11:43;4.47;;;3.65;;
45326;SDS011;31062;49.678;24.560;2023-05-07T09:14:30;13.15;;;6.15;;
45326;SDS011;31062;49.678;24.560;2023-05-07T09:17:17;6.40;;;3.90;;
45326;SDS011;31062;49.678;24.560;2023-05-07T09:20:04;5.68;;;3.72;;
45326;SDS011;31062;49.678;24.560;2023-05-07T09:22:56;6.72;;;4.25;;
45326;SDS011;31062;49.678;24.560;2023-05-07T09:25:42;5.22;;;3.08;;
45326;SDS011;31062;49.678;24.560;2023-05-07T09:28:34;5.47;;;4.28;;
45326;SDS011;31062;49.678;24.560;2023-05-07T09:31:21;10.25;;;4.40;;
45326;SDS011;31062;49.678;24.560;2023-05-07T09:34:11;8.88;;;2.75;;
45326;SDS011;31062;49.678;24.560;2023-05-07T09:37:04;6.50;;;3.78;;
45326;SDS011;31062;49.678;24.560;2023-05-07T09:39:51;6.90;;;3.00;;
45326;SDS011;31062;49.678;24.560;2023-05-07T09:42:41;4.82;;;2.65;;
45326;SDS011;31062;49.678;24.560;2023-05-07T09:45:26;6.93;;;3.17;;
45326;SDS011;31062;49.678;24.560;2023-05-07T09:48:15;4.72;;;2.42;;
45326;SDS011;31062;49.678;24.560;2023-05-07T09:51:06;6.90;;;2.50;;
45326;SDS011;31062;49.678;24.560;2023-05-07T09:54:03;9.75;;;2.60;;
45326;SDS011;31062;49.678;24.560;2023-05-07T09:56:52;8.05;;;3.58;;
45326;SDS011;31062;49.678;24.560;2023-05-07T09:59:42;9.60;;;3.00;;
45326;SDS011;31062;49.678;24.560;2023-05-07T10:02:32;6.13;;;4.18;;
45326;SDS011;31062;49.678;24.560;2023-05-07T10:05:22;12.40;;;7.43;;
45326;SDS011;31062;49.678;24.560;2023-05-07T10:08:11;8.55;;;5.50;;
45326;SDS011;31062;49.678;24.560;2023-05-07T10:10:59;9.68;;;6.32;;
45326;SDS011;31062;49.678;24.560;2023-05-07T10:13:46;15.27;;;8.85;;
45326;SDS011;31062;49.678;24.560;2023-05-07T10:16:35;6.80;;;5.25;;
45326;SDS011;31062;49.678;24.560;2023-05-07T10:19:27;6.28;;;4.40;;
45326;SDS011;31062;49.678;24.560;2023-05-07T10:22:15;6.68;;;4.00;;
45326;SDS011;31062;49.678;24.560;2023-05-07T10:25:06;11.55;;;6.25;;
45326;SDS011;31062;49.678;24.560;2023-05-07T10:28:04;10.27;;;5.28;;
45326;SDS011;31062;49.678;24.560;2023-05-07T10:30:58;5.10;;;2.70;;
45326;SDS011;31062;49.678;24.560;2023-05-07T10:33:58;7.07;;;3.47;;
45326;SDS011;31062;49.678;24.560;2023-05-07T10:36:46;6.43;;;2.80;;
45326;SDS011;31062;49.678;24.560;2023-05-07T10:39:32;5.05;;;3.30;;
45326;SDS011;31062;49.678;24.560;2023-05-07T10:42:18;7.55;;;3.20;;
45326;SDS011;31062;49.678;24.560;2023-05-07T10:45:14;3.88;;;2.83;;
45326;SDS011;31062;49.678;24.560;2023-05-07T10:51:19;6.32;;;3.35;;
45326;SDS011;31062;49.678;24.560;2023-05-07T11:00:44;3.67;;;2.90;;
45326;SDS011;31062;49.678;24.560;2023-05-07T11:04:12;3.38;;;2.70;;
45326;SDS011;31062;49.678;24.560;2023-05-07T11:10:03;3.25;;;2.85;;
45326;SDS011;31062;49.678;24.560;2023-05-07T11:13:07;6.13;;;2.95;;
45326;SDS011;31062;49.678;24.560;2023-05-07T11:16:02;5.50;;;3.50;;
45326;SDS011;31062;49.678;24.560;2023-05-07T11:18:55;5.85;;;3.47;;
45326;SDS011;31062;49.678;24.560;2023-05-07T11:21:49;4.45;;;3.30;;
45326;SDS011;31062;49.678;24.560;2023-05-07T11:24:42;5.65;;;2.90;;
45326;SDS011;31062;49.678;24.560;2023-05-07T11:27:30;7.30;;;3.80;;
45326;SDS011;31062;49.678;24.560;2023-05-07T11:30:19;5.50;;;3.38;;
45326;SDS011;31062;49.678;24.560;2023-05-07T11:33:05;5.75;;;3.78;;
45326;SDS011;31062;49.678;24.560;2023-05-07T11:35:54;4.32;;;3.58;;
45326;SDS011;31062;49.678;24.560;2023-05-07T11:41:33;3.78;;;3.45;;
45326;SDS011;31062;49.678;24.560;2023-05-07T11:44:20;6.03;;;3.90;;
45326;SDS011;31062;49.678;24.560;2023-05-07T11:47:05;5.55;;;3.85;;
45326;SDS011;31062;49.678;24.560;2023-05-07T11:49:51;3.63;;;3.28;;
45326;SDS011;31062;49.678;24.560;2023-05-07T11:52:39;4.75;;;3.30;;
45326;SDS011;31062;49.678;24.560;2023-05-07T11:55:25;4.90;;;3.47;;
45326;SDS011;31062;49.678;24.560;2023-05-07T11:58:12;8.10;;;3.90;;
45326;SDS011;31062;49.678;24.560;2023-05-07T12:01:07;6.20;;;3.50;;
45326;SDS011;31062;49.678;24.560;2023-05-07T12:03:54;7.07;;;4.15;;
45326;SDS011;31062;49.678;24.560;2023-05-07T12:06:40;4.72;;;3.50;;
45326;SDS011;31062;49.678;24.560;2023-05-07T12:09:26;5.00;;;3.67;;
45326;SDS011;31062;49.678;24.560;2023-05-07T12:12:14;4.70;;;3.47;;
45326;SDS011;31062;49.678;24.560;2023-05-07T12:15:03;5.25;;;3.38;;
45326;SDS011;31062;49.678;24.560;2023-05-07T12:17:49;4.72;;;3.40;;
45326;SDS011;31062;49.678;24.560;2023-05-07T12:20:36;12.20;;;3.70;;
45326;SDS011;31062;49.678;24.560;2023-05-07T12:23:22;9.23;;;3.42;;
45326;SDS011;31062;49.678;24.560;2023-05-07T12:26:08;3.95;;;3.15;;
45326;SDS011;31062;49.678;24.560;2023-05-07T12:28:54;4.43;;;3.78;;
45326;SDS011;31062;49.678;24.560;2023-05-07T12:31:40;4.68;;;3.83;;
45326;SDS011;31062;49.678;24.560;2023-05-07T12:34:27;4.70;;;3.47;;
45326;SDS011;31062;49.678;24.560;2023-05-07T12:37:13;4.22;;;3.83;;
45326;SDS011;31062;49.678;24.560;2023-05-07T12:40:05;5.60;;;3.15;;
45326;SDS011;31062;49.678;24.560;2023-05-07T12:42:55;5.13;;;3.45;;
45326;SDS011;31062;49.678;24.560;2023-05-07T12:45:42;6.13;;;4.10;;
45326;SDS011;31062;49.678;24.560;2023-05-07T12:48:29;4.03;;;3.30;;
45326;SDS011;31062;49.678;24.560;2023-05-07T12:51:15;3.65;;;3.20;;
45326;SDS011;31062;49.678;24.560;2023-05-07T12:54:01;4.40;;;4.00;;
45326;SDS011;31062;49.678;24.560;2023-05-07T12:56:46;4.18;;;3.35;;
45326;SDS011;31062;49.678;24.560;2023-05-07T13:02:17;4.90;;;3.88;;
45326;SDS011;31062;49.678;24.560;2023-05-07T13:05:03;4.13;;;3.55;;
45326;SDS011;31062;49.678;24.560;2023-05-07T13:07:55;7.60;;;3.78;;
45326;SDS011;31062;49.678;24.560;2023-05-07T13:10:42;5.35;;;4.30;;
45326;SDS011;31062;49.678;24.560;2023-05-07T13:13:27;4.68;;;3.35;;
45326;SDS011;31062;49.678;24.560;2023-05-07T13:16:16;3.92;;;3.33;;
45326;SDS011;31062;49.678;24.560;2023-05-07T13:19:05;5.97;;;4.70;;
45326;SDS011;31062;49.678;24.560;2023-05-07T13:21:51;8.25;;;3.75;;
45326;SDS011;31062;49.678;24.560;2023-05-07T13:24:36;5.68;;;3.28;;
45326;SDS011;31062;49.678;24.560;2023-05-07T13:27:22;6.90;;;4.20;;
45326;SDS011;31062;49.678;24.560;2023-05-07T13:30:07;4.80;;;4.20;;
45326;SDS011;31062;49.678;24.560;2023-05-07T13:32:54;6.15;;;3.65;;
45326;SDS011;31062;49.678;24.560;2023-05-07T13:35:41;4.38;;;3.47;;
45326;SDS011;31062;49.678;24.560;2023-05-07T13:38:30;6.53;;;3.65;;
45326;SDS011;31062;49.678;24.560;2023-05-07T13:41:18;6.43;;;3.47;;
45326;SDS011;31062;49.678;24.560;2023-05-07T13:44:04;7.50;;;4.80;;
45326;SDS011;31062;49.678;24.560;2023-05-07T13:46:49;4.55;;;3.90;;
45326;SDS011;31062;49.678;24.560;2023-05-07T13:49:35;4.32;;;3.90;;
45326;SDS011;31062;49.678;24.560;2023-05-07T13:52:20;9.43;;;3.80;;
45326;SDS011;31062;49.678;24.560;2023-05-07T13:55:06;8.95;;;5.93;;
45326;SDS011;31062;49.678;24.560;2023-05-07T13:57:56;11.27;;;7.57;;
45326;SDS011;31062;49.678;24.560;2023-05-07T14:00:42;6.63;;;4.60;;
45326;SDS011;31062;49.678;24.560;2023-05-07T14:03:28;4.88;;;3.88;;
45326;SDS011;31062;49.678;24.560;2023-05-07T14:06:17;4.63;;;3.97;;
45326;SDS011;31062;49.678;24.560;2023-05-07T14:09:03;7.97;;;7.03;;
45326;SDS011;31062;49.678;24.560;2023-05-07T14:11:49;4.75;;;3.50;;
45326;SDS011;31062;49.678;24.560;2023-05-07T14:14:36;5.47;;;4.63;;
45326;SDS011;31062;49.678;24.560;2023-05-07T14:17:21;10.43;;;7.10;;
45326;SDS011;31062;49.678;24.560;2023-05-07T14:20:10;9.73;;;6.40;;
45326;SDS011;31062;49.678;24.560;2023-05-07T14:22:57;9.52;;;5.32;;
45326;SDS011;31062;49.678;24.560;2023-05-07T14:25:43;6.82;;;5.05;;
45326;SDS011;31062;49.678;24.560;2023-05-07T14:28:28;4.88;;;3.97;;
45326;SDS011;31062;49.678;24.560;2023-05-07T14:31:14;8.20;;;4.43;;
45326;SDS011;31062;49.678;24.560;2023-05-07T14:34:00;5.05;;;4.20;;
45326;SDS011;31062;49.678;24.560;2023-05-07T14:36:47;4.97;;;3.85;;
45326;SDS011;31062;49.678;24.560;2023-05-07T14:39:32;9.07;;;3.60;;
45326;SDS011;31062;49.678;24.560;2023-05-07T14:42:18;5.85;;;3.53;;
45326;SDS011;31062;49.678;24.560;2023-05-07T14:45:05;6.13;;;3.67;;
45326;SDS011;31062;49.678;24.560;2023-05-07T14:47:51;5.85;;;3.70;;
45326;SDS011;31062;49.678;24.560;2023-05-07T14:50:36;9.35;;;4.28;;
45326;SDS011;31062;49.678;24.560;2023-05-07T14:53:21;5.22;;;3.78;;
45326;SDS011;31062;49.678;24.560;2023-05-07T14:56:07;4.55;;;4.00;;
45326;SDS011;31062;49.678;24.560;2023-05-07T14:58:53;6.88;;;3.38;;
45326;SDS011;31062;49.678;24.560;2023-05-07T15:01:39;8.75;;;3.83;;
45326;SDS011;31062;49.678;24.560;2023-05-07T15:04:27;5.78;;;4.00;;
45326;SDS011;31062;49.678;24.560;2023-05-07T15:07:13;5.28;;;4.00;;
45326;SDS011;31062;49.678;24.560;2023-05-07T15:10:02;5.00;;;4.15;;
45326;SDS011;31062;49.678;24.560;2023-05-07T15:12:48;4.38;;;3.97;;
45326;SDS011;31062;49.678;24.560;2023-05-07T15:15:33;5.88;;;4.28;;
45326;SDS011;31062;49.678;24.560;2023-05-07T15:18:20;5.25;;;4.43;;
45326;SDS011;31062;49.678;24.560;2023-05-07T15:21:07;5.47;;;4.18;;
45326;SDS011;31062;49.678;24.560;2023-05-07T15:23:53;8.43;;;5.85;;
45326;SDS011;31062;49.678;24.560;2023-05-07T15:26:39;7.55;;;4.68;;
45326;SDS011;31062;49.678;24.560;2023-05-07T15:29:24;5.93;;;4.70;;
45326;SDS011;31062;49.678;24.560;2023-05-07T15:32:10;4.32;;;3.92;;
45326;SDS011;31062;49.678;24.560;2023-05-07T15:34:56;8.93;;;5.15;;
45326;SDS011;31062;49.678;24.560;2023-05-07T15:37:42;3.85;;;3.55;;
45326;SDS011;31062;49.678;24.560;2023-05-07T15:40:27;6.72;;;3.50;;
45326;SDS011;31062;49.678;24.560;2023-05-07T15:43:13;4.55;;;3.80;;
45326;SDS011;31062;49.678;24.560;2023-05-07T15:45:59;7.07;;;4.10;;
45326;SDS011;31062;49.678;24.560;2023-05-07T15:48:46;6.15;;;3.60;;
45326;SDS011;31062;49.678;24.560;2023-05-07T15:51:33;5.40;;;3.80;;
45326;SDS011;31062;49.678;24.560;2023-05-07T15:54:19;5.07;;;3.80;;
45326;SDS011;31062;49.678;24.560;2023-05-07T15:57:05;6.70;;;5.18;;
45326;SDS011;31062;49.678;24.560;2023-05-07T15:59:54;8.85;;;4.03;;
45326;SDS011;31062;49.678;24.560;2023-05-07T16:02:39;10.90;;;4.72;;
45326;SDS011;31062;49.678;24.560;2023-05-07T16:05:25;6.35;;;4.38;;
45326;SDS011;31062;49.678;24.560;2023-05-07T16:08:10;6.00;;;4.90;;
45326;SDS011;31062;49.678;24.560;2023-05-07T16:10:56;6.35;;;4.72;;
45326;SDS011;31062;49.678;24.560;2023-05-07T16:13:41;8.38;;;4.93;;
45326;SDS011;31062;49.678;24.560;2023-05-07T16:16:26;10.07;;;4.57;;
45326;SDS011;31062;49.678;24.560;2023-05-07T16:19:14;7.65;;;5.25;;
45326;SDS011;31062;49.678;24.560;2023-05-07T16:21:59;5.20;;;3.83;;
45326;SDS011;31062;49.678;24.560;2023-05-07T16:24:45;6.38;;;4.55;;
45326;SDS011;31062;49.678;24.560;2023-05-07T16:27:30;7.53;;;4.50;;
45326;SDS011;31062;49.678;24.560;2023-05-07T16:30:16;5.47;;;4.10;;
45326;SDS011;31062;49.678;24.560;2023-05-07T16:33:01;6.57;;;4.03;;
45326;SDS011;31062;49.678;24.560;2023-05-07T16:35:51;5.93;;;3.72;;
45326;SDS011;31062;49.678;24.560;2023-05-07T16:38:36;6.82;;;4.32;;
45326;SDS011;31062;49.678;24.560;2023-05-07T16:41:23;6.88;;;4.38;;
45326;SDS011;31062;49.678;24.560;2023-05-07T16:44:08;5.68;;;3.83;;
45326;SDS011;31062;49.678;24.560;2023-05-07T16:46:54;9.70;;;4.03;;
45326;SDS011;31062;49.678;24.560;2023-05-07T16:49:39;4.45;;;3.60;;